Pemberville, OH (43450)

2:47 AM EDT on August 30, 2015 (GMT -0400)
Lemoyne | | Change Station
CLOSE
Current Station
Personal Weather Station
Location: Perrysburg, OH
Elevation: 640 ft
Nearby Weather Stations

Elev 640 ft 41.49 °N, 83.47 °W | Updated 38 seconds ago

Mostly Cloudy
Mostly Cloudy
68.2 °F
Feels Like 68.2 °F
N
0.0
Wind Variable Wind from SW
Gusts 0.0 mph

Today
High -- | Low -- °F
--% Chance of Precip.
Yesterday
High -- | Low -- °F
Precip. -- in
6:57 AM 8:10 PM
Full, 100% visible
Pressure 30.06 in
Visibility 5.0 miles
Clouds Scattered Clouds 3900 ft
Scattered Clouds 5000 ft
Mostly Cloudy 7000 ft
Dew Point 68 °F
Humidity 98%
Rainfall 0.04 in
Snow Depth Not available.
UV 0.0 out of 12
Pollen 8.60 out of 12
Air Quality Not available.
Flu Activity Not available.
METAR KTDZ 300553Z AUTO 32003KT 5SM BR SCT039 SCT050 BKN070 21/19 A3007 RMK AO2 LTG DSNT SE RAB12E31 SLP178 P0001 60002 T02110194 10222 20206 58001
Pressure 30.06 in
Visibility 5.0 miles
Clouds Scattered Clouds 3900 ft
Scattered Clouds 5000 ft
Mostly Cloudy 7000 ft
Dew Point 68 °F
Humidity 98%
Rainfall 0.04 in
Snow Depth Not available.
UV 0.0 out of 12
Pollen 8.60 out of 12
Air Quality Not available.
Flu Activity Not available.
METAR KTDZ 300553Z AUTO 32003KT 5SM BR SCT039 SCT050 BKN070 21/19 A3007 RMK AO2 LTG DSNT SE RAB12E31 SLP178 P0001 60002 T02110194 10222 20206 58001

10-Day Weather Forecast

×

Almanac

Astronomy

Aug. 30, 2015 Rise Set
Actual Time
Civil Twilight
Nautical Twilight
Astronomical Twilight
Moon
Length of Visible Light
Length of Day
Tomorrow will be .
, % of the Moon is Illuminated

Today's Extremes

State Highs State Lows

Community

WunderPhotos

Upload Photos

1,850,904 photos uploaded!

WunderBlogs® & News

Nearby

Air Quality

  Air Quality AQ Index Pollutant
Not available.

Snow Depth

Station Depth Elevation

Earthquake Activity

City Distance Mag. Time & Date
Minimum magnitude displayed is 2.5.

Coastal Water Temperatures

Place Temperature

Stations

Nearby Weather Stations

Station Location Temp. Windchill Dew Point Humidity Wind Precip. Elev Updated Type